WZZ411 ENZV-EPGD
Flight info
| Callsign | WZZ411 |
|---|---|
| Flight time | 1h 25m |
| Altitude | 37000 |
| Route | PEVEB DCT TOPLA DCT PENOR N133 DOMAG T240 OGDAV |
| Aircraft | A321/M-SDE1E2E3FGIJ1J4RWXY/LB1 |
Departure
| Time | 2026-04-21 15:59 |
|---|---|
| Airport | Stavanger Airport, Sola (ENZV) |
Arrival
| Time | 2026-04-21 17:24 |
|---|---|
| Airport | Gdańsk Lech Wałęsa Airport (EPGD) |
| Time | Latitude | Longitude | Altitude | Speed | Heading |
|---|---|---|---|---|---|
| 2026-04-21 15:30 | 58.88133 | 5.63012 | 36 ft | 0 kts | 314° |
| 2026-04-21 15:36 | 58.88133 | 5.63013 | 36 ft | 0 kts | 314° |
| 2026-04-21 15:47 | 58.88133 | 5.63014 | 36 ft | 0 kts | 314° |
| 2026-04-21 15:49 | 58.88132 | 5.63014 | 36 ft | 0 kts | 314° |
| 2026-04-21 15:52 | 58.88117 | 5.63044 | 36 ft | 4 kts | 314° |
| 2026-04-21 15:53 | 58.88099 | 5.63080 | 35 ft | 3 kts | 314° |
| 2026-04-21 15:53 | 58.88081 | 5.63118 | 36 ft | 4 kts | 307° |
| 2026-04-21 15:53 | 58.88067 | 5.63161 | 35 ft | 4 kts | 295° |
| 2026-04-21 15:53 | 58.88060 | 5.63192 | 37 ft | 0 kts | 290° |
| 2026-04-21 15:55 | 58.88060 | 5.63189 | 37 ft | 1 kts | 287° |
| 2026-04-21 15:55 | 58.88055 | 5.63169 | 35 ft | 5 kts | 245° |
| 2026-04-21 15:55 | 58.88008 | 5.63121 | 37 ft | 10 kts | 165° |
| 2026-04-21 15:56 | 58.87966 | 5.63222 | 36 ft | 11 kts | 113° |
| 2026-04-21 15:56 | 58.87919 | 5.63329 | 38 ft | 12 kts | 173° |
| 2026-04-21 15:56 | 58.87828 | 5.63287 | 39 ft | 14 kts | 186° |
| 2026-04-21 15:56 | 58.87744 | 5.63384 | 40 ft | 17 kts | 114° |
| 2026-04-21 15:57 | 58.87704 | 5.63634 | 40 ft | 22 kts | 105° |
| 2026-04-21 15:57 | 58.87668 | 5.63921 | 38 ft | 23 kts | 102° |
| 2026-04-21 15:57 | 58.87634 | 5.64218 | 44 ft | 22 kts | 103° |
| 2026-04-21 15:57 | 58.87607 | 5.64389 | 43 ft | 6 kts | 150° |
| 2026-04-21 15:58 | 58.87599 | 5.64367 | 43 ft | 3 kts | 264° |
| 2026-04-21 15:58 | 58.87601 | 5.64314 | 43 ft | 7 kts | 281° |
| 2026-04-21 15:58 | 58.87643 | 5.64036 | 41 ft | 43 kts | 287° |
| 2026-04-21 15:58 | 58.87810 | 5.63011 | 41 ft | 116 kts | 286° |
| 2026-04-21 15:59 | 58.88082 | 5.61146 | 143 ft | 160 kts | 287° |
| 2026-04-21 15:59 | 58.88392 | 5.59120 | 936 ft | 155 kts | 289° |
| 2026-04-21 15:59 | 58.88700 | 5.57092 | 1569 ft | 162 kts | 290° |
| 2026-04-21 15:59 | 58.89039 | 5.54863 | 1826 ft | 183 kts | 289° |
| 2026-04-21 16:00 | 58.89420 | 5.52334 | 2060 ft | 207 kts | 289° |
| 2026-04-21 16:00 | 58.89842 | 5.49529 | 2290 ft | 233 kts | 288° |
| 2026-04-21 16:00 | 58.90310 | 5.46429 | 2934 ft | 244 kts | 287° |
| 2026-04-21 16:00 | 58.90790 | 5.43231 | 3740 ft | 250 kts | 287° |
| 2026-04-21 16:01 | 58.91050 | 5.39896 | 4517 ft | 256 kts | 263° |
| 2026-04-21 16:01 | 58.90339 | 5.36793 | 5290 ft | 261 kts | 226° |
| 2026-04-21 16:01 | 58.88821 | 5.34853 | 6073 ft | 265 kts | 201° |
| 2026-04-21 16:01 | 58.87042 | 5.33874 | 6879 ft | 268 kts | 184° |
| 2026-04-21 16:02 | 58.85210 | 5.34423 | 7595 ft | 270 kts | 155° |
| 2026-04-21 16:02 | 58.83598 | 5.36276 | 8307 ft | 275 kts | 138° |
| 2026-04-21 16:02 | 58.82363 | 5.39129 | 8937 ft | 280 kts | 115° |
| 2026-04-21 16:02 | 58.81540 | 5.42569 | 9702 ft | 283 kts | 112° |
| 2026-04-21 16:03 | 58.80755 | 5.46028 | 10475 ft | 287 kts | 111° |
| 2026-04-21 16:03 | 58.79945 | 5.49653 | 10881 ft | 305 kts | 111° |
| 2026-04-21 16:03 | 58.79080 | 5.53553 | 11099 ft | 327 kts | 111° |
| 2026-04-21 16:03 | 58.78171 | 5.57647 | 11643 ft | 335 kts | 111° |
| 2026-04-21 16:04 | 58.77243 | 5.61804 | 12364 ft | 339 kts | 112° |
| 2026-04-21 16:04 | 58.76301 | 5.66004 | 13141 ft | 342 kts | 112° |
| 2026-04-21 16:04 | 58.75349 | 5.70239 | 13884 ft | 345 kts | 112° |
| 2026-04-21 16:04 | 58.74389 | 5.74492 | 14595 ft | 347 kts | 112° |
| 2026-04-21 16:05 | 58.73431 | 5.78719 | 15268 ft | 349 kts | 113° |
| 2026-04-21 16:05 | 58.72452 | 5.83039 | 15910 ft | 353 kts | 113° |
| 2026-04-21 16:05 | 58.71463 | 5.87397 | 16557 ft | 357 kts | 113° |
| 2026-04-21 16:05 | 58.70461 | 5.91796 | 17241 ft | 360 kts | 114° |
| 2026-04-21 16:06 | 58.69448 | 5.96226 | 17932 ft | 363 kts | 114° |
| 2026-04-21 16:06 | 58.68428 | 6.00680 | 18593 ft | 366 kts | 114° |
| 2026-04-21 16:06 | 58.67398 | 6.05175 | 19166 ft | 369 kts | 115° |
| 2026-04-21 16:06 | 58.66355 | 6.09715 | 19714 ft | 373 kts | 115° |
| 2026-04-21 16:07 | 58.65302 | 6.14286 | 20321 ft | 375 kts | 116° |
| 2026-04-21 16:07 | 58.64240 | 6.18878 | 20913 ft | 377 kts | 116° |
| 2026-04-21 16:07 | 58.63180 | 6.23450 | 21495 ft | 380 kts | 116° |
| 2026-04-21 16:07 | 58.62095 | 6.28125 | 22033 ft | 384 kts | 116° |
| 2026-04-21 16:08 | 58.59893 | 6.37573 | 23193 ft | 390 kts | 116° |
| 2026-04-21 16:08 | 58.58792 | 6.42279 | 23741 ft | 393 kts | 116° |
| 2026-04-21 16:08 | 58.57668 | 6.47075 | 24235 ft | 395 kts | 117° |
| 2026-04-21 16:09 | 58.56534 | 6.51902 | 24686 ft | 397 kts | 117° |
| 2026-04-21 16:09 | 58.55392 | 6.56757 | 25137 ft | 400 kts | 117° |
| 2026-04-21 16:09 | 58.54245 | 6.61629 | 25563 ft | 403 kts | 117° |
| 2026-04-21 16:09 | 58.53100 | 6.66477 | 25985 ft | 405 kts | 117° |
| 2026-04-21 16:10 | 58.51933 | 6.71405 | 26408 ft | 407 kts | 117° |
| 2026-04-21 16:10 | 58.50754 | 6.76365 | 26823 ft | 410 kts | 117° |
| 2026-04-21 16:10 | 58.49571 | 6.81352 | 27236 ft | 412 kts | 117° |
| 2026-04-21 16:10 | 58.48419 | 6.86402 | 27642 ft | 415 kts | 116° |
| 2026-04-21 16:11 | 58.47304 | 6.91518 | 28038 ft | 418 kts | 115° |
| 2026-04-21 16:11 | 58.46202 | 6.96691 | 28433 ft | 421 kts | 114° |
| 2026-04-21 16:11 | 58.45111 | 7.01841 | 28819 ft | 424 kts | 114° |
| 2026-04-21 16:11 | 58.43989 | 7.07093 | 29087 ft | 429 kts | 115° |
| 2026-04-21 16:12 | 58.43233 | 7.10599 | 29181 ft | 434 kts | 115° |
| 2026-04-21 16:12 | 58.41656 | 7.17813 | 29363 ft | 444 kts | 115° |
| 2026-04-21 16:12 | 58.40443 | 7.23303 | 29529 ft | 451 kts | 115° |
| 2026-04-21 16:12 | 58.39225 | 7.28796 | 29666 ft | 457 kts | 115° |
| 2026-04-21 16:13 | 58.37976 | 7.34421 | 29906 ft | 460 kts | 115° |
| 2026-04-21 16:13 | 58.36726 | 7.40050 | 30252 ft | 461 kts | 115° |
| 2026-04-21 16:13 | 58.35477 | 7.45685 | 30616 ft | 460 kts | 115° |
| 2026-04-21 16:13 | 58.34242 | 7.51240 | 30938 ft | 459 kts | 114° |
| 2026-04-21 16:14 | 58.32993 | 7.56839 | 31263 ft | 459 kts | 114° |
| 2026-04-21 16:14 | 58.31736 | 7.62450 | 31596 ft | 458 kts | 114° |
| 2026-04-21 16:14 | 58.30498 | 7.67961 | 31928 ft | 458 kts | 115° |
| 2026-04-21 16:14 | 58.29239 | 7.73547 | 32266 ft | 457 kts | 115° |
| 2026-04-21 16:15 | 58.27989 | 7.79087 | 32605 ft | 456 kts | 115° |
| 2026-04-21 16:15 | 58.26736 | 7.84623 | 32948 ft | 455 kts | 115° |
| 2026-04-21 16:15 | 58.25480 | 7.90156 | 33279 ft | 454 kts | 115° |
| 2026-04-21 16:15 | 58.24244 | 7.95586 | 33604 ft | 454 kts | 115° |
| 2026-04-21 16:16 | 58.22990 | 8.01083 | 33929 ft | 453 kts | 115° |
| 2026-04-21 16:16 | 58.21733 | 8.06572 | 34274 ft | 452 kts | 114° |
| 2026-04-21 16:16 | 58.20474 | 8.12040 | 34579 ft | 451 kts | 114° |
| 2026-04-21 16:16 | 58.19216 | 8.17495 | 34823 ft | 451 kts | 114° |
| 2026-04-21 16:17 | 58.17969 | 8.22899 | 35051 ft | 451 kts | 114° |
| 2026-04-21 16:17 | 58.16708 | 8.28361 | 35274 ft | 452 kts | 114° |
| 2026-04-21 16:17 | 58.15447 | 8.33807 | 35488 ft | 452 kts | 114° |
| 2026-04-21 16:17 | 58.14181 | 8.39260 | 35711 ft | 452 kts | 114° |
| 2026-04-21 16:18 | 58.12913 | 8.44710 | 35920 ft | 453 kts | 114° |
| 2026-04-21 16:18 | 58.11640 | 8.50158 | 36135 ft | 453 kts | 114° |
| 2026-04-21 16:18 | 58.10362 | 8.55605 | 36347 ft | 453 kts | 114° |
| 2026-04-21 16:18 | 58.09083 | 8.61050 | 36563 ft | 453 kts | 114° |
| 2026-04-21 16:19 | 58.07799 | 8.66505 | 36777 ft | 454 kts | 113° |
| 2026-04-21 16:19 | 58.06512 | 8.71959 | 36999 ft | 454 kts | 113° |
| 2026-04-21 16:19 | 58.05222 | 8.77411 | 37205 ft | 454 kts | 113° |
| 2026-04-21 16:19 | 58.03946 | 8.82790 | 37388 ft | 455 kts | 113° |
| 2026-04-21 16:20 | 58.02650 | 8.88230 | 37433 ft | 455 kts | 113° |
| 2026-04-21 16:20 | 58.00047 | 8.99117 | 37427 ft | 455 kts | 113° |
| 2026-04-21 16:21 | 57.97436 | 9.10006 | 37427 ft | 455 kts | 113° |
| 2026-04-21 16:21 | 57.94816 | 9.20888 | 37431 ft | 455 kts | 113° |
| 2026-04-21 16:22 | 57.92188 | 9.31747 | 37420 ft | 455 kts | 113° |
| 2026-04-21 16:22 | 57.89551 | 9.42605 | 37433 ft | 456 kts | 113° |
| 2026-04-21 16:23 | 57.86900 | 9.53446 | 37437 ft | 457 kts | 113° |
| 2026-04-21 16:23 | 57.84246 | 9.64226 | 37441 ft | 457 kts | 114° |
| 2026-04-21 16:24 | 57.81563 | 9.75080 | 37446 ft | 457 kts | 114° |
| 2026-04-21 16:24 | 57.78897 | 9.85828 | 37447 ft | 457 kts | 113° |
| 2026-04-21 16:25 | 57.76204 | 9.96627 | 37438 ft | 456 kts | 113° |
| 2026-04-21 16:25 | 57.73499 | 10.07404 | 37440 ft | 456 kts | 114° |
| 2026-04-21 16:26 | 57.70802 | 10.18094 | 37440 ft | 456 kts | 114° |
| 2026-04-21 16:26 | 57.68082 | 10.28836 | 37433 ft | 456 kts | 114° |
| 2026-04-21 16:27 | 57.65351 | 10.39559 | 37441 ft | 456 kts | 114° |
| 2026-04-21 16:27 | 57.62632 | 10.50189 | 37435 ft | 456 kts | 114° |
| 2026-04-21 16:28 | 57.59891 | 10.60880 | 37432 ft | 456 kts | 114° |
| 2026-04-21 16:28 | 57.57138 | 10.71537 | 37422 ft | 456 kts | 114° |
| 2026-04-21 16:29 | 57.54838 | 10.80405 | 37421 ft | 456 kts | 114° |
| 2026-04-21 16:29 | 57.51614 | 10.92786 | 37427 ft | 456 kts | 114° |
| 2026-04-21 16:30 | 57.48856 | 11.03317 | 37417 ft | 455 kts | 114° |
| 2026-04-21 16:30 | 57.46073 | 11.13909 | 37415 ft | 454 kts | 114° |
| 2026-04-21 16:31 | 57.43301 | 11.24405 | 37416 ft | 454 kts | 114° |
| 2026-04-21 16:31 | 57.40495 | 11.34961 | 37420 ft | 454 kts | 114° |
| 2026-04-21 16:32 | 57.37807 | 11.45041 | 37414 ft | 454 kts | 114° |
| 2026-04-21 16:32 | 57.35010 | 11.55483 | 37408 ft | 455 kts | 114° |
| 2026-04-21 16:33 | 57.32185 | 11.65961 | 37403 ft | 454 kts | 114° |
| 2026-04-21 16:33 | 57.29353 | 11.76421 | 37404 ft | 454 kts | 114° |
| 2026-04-21 16:34 | 57.26990 | 11.85121 | 37402 ft | 454 kts | 114° |
| 2026-04-21 16:34 | 57.24146 | 11.95573 | 37413 ft | 454 kts | 114° |
| 2026-04-21 16:35 | 57.21310 | 12.05940 | 37406 ft | 455 kts | 114° |
| 2026-04-21 16:35 | 57.18435 | 12.16363 | 37399 ft | 455 kts | 114° |
| 2026-04-21 16:36 | 57.15551 | 12.26757 | 37385 ft | 455 kts | 114° |
| 2026-04-21 16:36 | 57.12669 | 12.37141 | 37393 ft | 455 kts | 114° |
| 2026-04-21 16:37 | 57.09790 | 12.47449 | 37387 ft | 455 kts | 115° |
| 2026-04-21 16:37 | 57.06871 | 12.57798 | 37391 ft | 456 kts | 115° |
| 2026-04-21 16:38 | 57.03506 | 12.67825 | 37372 ft | 459 kts | 121° |
| 2026-04-21 16:38 | 56.99929 | 12.77356 | 37376 ft | 459 kts | 122° |
| 2026-04-21 16:39 | 56.96269 | 12.86991 | 37367 ft | 459 kts | 122° |
| 2026-04-21 16:39 | 56.92607 | 12.96616 | 37373 ft | 459 kts | 122° |
| 2026-04-21 16:40 | 56.88967 | 13.06170 | 37359 ft | 458 kts | 121° |
| 2026-04-21 16:40 | 56.85314 | 13.15729 | 37350 ft | 458 kts | 121° |
| 2026-04-21 16:41 | 56.81652 | 13.25281 | 37345 ft | 458 kts | 121° |
| 2026-04-21 16:41 | 56.78007 | 13.34769 | 37350 ft | 459 kts | 122° |
| 2026-04-21 16:42 | 56.74318 | 13.44295 | 37352 ft | 459 kts | 122° |
| 2026-04-21 16:42 | 56.70608 | 13.53842 | 37372 ft | 460 kts | 122° |
| 2026-04-21 16:43 | 56.66904 | 13.63338 | 37353 ft | 460 kts | 122° |
| 2026-04-21 16:43 | 56.63215 | 13.72773 | 37351 ft | 460 kts | 122° |
| 2026-04-21 16:44 | 56.59496 | 13.82247 | 37356 ft | 460 kts | 122° |
| 2026-04-21 16:44 | 56.55787 | 13.91634 | 37355 ft | 460 kts | 122° |
| 2026-04-21 16:45 | 56.52052 | 14.01063 | 37358 ft | 459 kts | 122° |
| 2026-04-21 16:45 | 56.48318 | 14.10463 | 37350 ft | 460 kts | 122° |
| 2026-04-21 16:46 | 56.44588 | 14.19817 | 37335 ft | 460 kts | 122° |
| 2026-04-21 16:46 | 56.40831 | 14.29205 | 37326 ft | 460 kts | 122° |
| 2026-04-21 16:47 | 56.37064 | 14.38580 | 37330 ft | 460 kts | 122° |
| 2026-04-21 16:47 | 56.33310 | 14.47876 | 37339 ft | 461 kts | 122° |
| 2026-04-21 16:48 | 56.29526 | 14.57208 | 37344 ft | 461 kts | 122° |
| 2026-04-21 16:48 | 56.25729 | 14.66539 | 37337 ft | 461 kts | 122° |
| 2026-04-21 16:49 | 56.21930 | 14.75844 | 37344 ft | 461 kts | 122° |
| 2026-04-21 16:49 | 56.18123 | 14.85126 | 37342 ft | 461 kts | 122° |
| 2026-04-21 16:50 | 56.14327 | 14.94352 | 37339 ft | 461 kts | 122° |
| 2026-04-21 16:50 | 56.10498 | 15.03608 | 37355 ft | 461 kts | 122° |
| 2026-04-21 16:51 | 56.06665 | 15.12870 | 37350 ft | 462 kts | 122° |
| 2026-04-21 16:51 | 56.02844 | 15.22056 | 37344 ft | 462 kts | 122° |
| 2026-04-21 16:52 | 55.98992 | 15.31271 | 37354 ft | 462 kts | 122° |
| 2026-04-21 16:52 | 55.95136 | 15.40455 | 37354 ft | 462 kts | 123° |
| 2026-04-21 16:53 | 55.91266 | 15.49643 | 37003 ft | 460 kts | 122° |
| 2026-04-21 16:53 | 55.89351 | 15.54178 | 36521 ft | 455 kts | 122° |
| 2026-04-21 16:53 | 55.87450 | 15.58679 | 36270 ft | 454 kts | 122° |
| 2026-04-21 16:53 | 55.85548 | 15.63177 | 36021 ft | 456 kts | 122° |
| 2026-04-21 16:54 | 55.83662 | 15.67624 | 35780 ft | 456 kts | 122° |
| 2026-04-21 16:54 | 55.81741 | 15.72141 | 35536 ft | 455 kts | 122° |
| 2026-04-21 16:54 | 55.79830 | 15.76628 | 35288 ft | 454 kts | 121° |
| 2026-04-21 16:54 | 55.77922 | 15.81102 | 35046 ft | 453 kts | 121° |
| 2026-04-21 16:55 | 55.76007 | 15.85580 | 34804 ft | 453 kts | 121° |
| 2026-04-21 16:55 | 55.74106 | 15.90011 | 34571 ft | 452 kts | 121° |
| 2026-04-21 16:55 | 55.72218 | 15.94409 | 34352 ft | 451 kts | 121° |
| 2026-04-21 16:55 | 55.70316 | 15.98832 | 34073 ft | 451 kts | 121° |
| 2026-04-21 16:56 | 55.68409 | 16.03260 | 33795 ft | 451 kts | 121° |
| 2026-04-21 16:56 | 55.66502 | 16.07680 | 33516 ft | 451 kts | 121° |
| 2026-04-21 16:56 | 55.64592 | 16.12101 | 33283 ft | 451 kts | 121° |
| 2026-04-21 16:57 | 55.60765 | 16.20954 | 33321 ft | 452 kts | 121° |
| 2026-04-21 16:57 | 55.56950 | 16.29720 | 33314 ft | 452 kts | 121° |
| 2026-04-21 16:58 | 55.53096 | 16.38531 | 33320 ft | 452 kts | 121° |
| 2026-04-21 16:58 | 55.49238 | 16.47335 | 33317 ft | 452 kts | 121° |
| 2026-04-21 16:59 | 55.45382 | 16.56108 | 33315 ft | 453 kts | 121° |
| 2026-04-21 16:59 | 55.41540 | 16.64826 | 33314 ft | 451 kts | 121° |
| 2026-04-21 17:00 | 55.37683 | 16.73554 | 33312 ft | 447 kts | 121° |
| 2026-04-21 17:00 | 55.35793 | 16.77793 | 33311 ft | 431 kts | 121° |
| 2026-04-21 17:00 | 55.34580 | 16.80500 | 33330 ft | 421 kts | 121° |
| 2026-04-21 17:00 | 55.32173 | 16.85877 | 33201 ft | 416 kts | 121° |
| 2026-04-21 17:01 | 55.30393 | 16.89866 | 32921 ft | 412 kts | 121° |
| 2026-04-21 17:01 | 55.28629 | 16.93823 | 32652 ft | 410 kts | 121° |
| 2026-04-21 17:01 | 55.26874 | 16.97750 | 32385 ft | 408 kts | 121° |
| 2026-04-21 17:01 | 55.25143 | 17.01615 | 32109 ft | 406 kts | 121° |
| 2026-04-21 17:02 | 55.23397 | 17.05507 | 31845 ft | 404 kts | 121° |
| 2026-04-21 17:02 | 55.21657 | 17.09380 | 31601 ft | 402 kts | 121° |
| 2026-04-21 17:02 | 55.19929 | 17.13220 | 31344 ft | 400 kts | 121° |
| 2026-04-21 17:02 | 55.18206 | 17.17039 | 31081 ft | 399 kts | 121° |
| 2026-04-21 17:03 | 55.16488 | 17.20834 | 30831 ft | 397 kts | 121° |
| 2026-04-21 17:03 | 55.14776 | 17.24614 | 30580 ft | 395 kts | 121° |
| 2026-04-21 17:03 | 55.13070 | 17.28380 | 30349 ft | 394 kts | 121° |
| 2026-04-21 17:03 | 55.11363 | 17.32150 | 30057 ft | 393 kts | 121° |
| 2026-04-21 17:04 | 55.09668 | 17.35886 | 29762 ft | 392 kts | 121° |
| 2026-04-21 17:04 | 55.07996 | 17.39562 | 29482 ft | 390 kts | 121° |
| 2026-04-21 17:04 | 55.06314 | 17.43248 | 29177 ft | 385 kts | 121° |
| 2026-04-21 17:04 | 55.04654 | 17.46875 | 28774 ft | 380 kts | 121° |
| 2026-04-21 17:05 | 55.03013 | 17.50463 | 28350 ft | 376 kts | 121° |
| 2026-04-21 17:05 | 55.01385 | 17.54019 | 27941 ft | 373 kts | 121° |
| 2026-04-21 17:05 | 54.99771 | 17.57527 | 27549 ft | 369 kts | 122° |
| 2026-04-21 17:05 | 54.98173 | 17.61000 | 27161 ft | 366 kts | 122° |
| 2026-04-21 17:06 | 54.96589 | 17.64445 | 26773 ft | 362 kts | 122° |
| 2026-04-21 17:06 | 54.95017 | 17.67861 | 26416 ft | 359 kts | 122° |
| 2026-04-21 17:06 | 54.93464 | 17.71230 | 26048 ft | 355 kts | 122° |
| 2026-04-21 17:06 | 54.91923 | 17.74570 | 25660 ft | 353 kts | 122° |
| 2026-04-21 17:07 | 54.90907 | 17.76764 | 25412 ft | 350 kts | 122° |
| 2026-04-21 17:07 | 54.88872 | 17.81150 | 24914 ft | 346 kts | 122° |
| 2026-04-21 17:07 | 54.87388 | 17.84347 | 24546 ft | 343 kts | 122° |
| 2026-04-21 17:07 | 54.85891 | 17.87568 | 24164 ft | 340 kts | 122° |
| 2026-04-21 17:08 | 54.84407 | 17.90753 | 23771 ft | 337 kts | 122° |
| 2026-04-21 17:08 | 54.82940 | 17.93905 | 23358 ft | 334 kts | 122° |
| 2026-04-21 17:08 | 54.81490 | 17.97020 | 23083 ft | 327 kts | 122° |
| 2026-04-21 17:08 | 54.79983 | 17.99965 | 22998 ft | 338 kts | 130° |
| 2026-04-21 17:09 | 54.76198 | 18.05150 | 21962 ft | 347 kts | 137° |
| 2026-04-21 17:09 | 54.74258 | 18.07649 | 21494 ft | 346 kts | 137° |
| 2026-04-21 17:09 | 54.72336 | 18.10118 | 21105 ft | 342 kts | 137° |
| 2026-04-21 17:10 | 54.70443 | 18.12556 | 20623 ft | 342 kts | 137° |
| 2026-04-21 17:10 | 54.68550 | 18.15004 | 20256 ft | 338 kts | 137° |
| 2026-04-21 17:10 | 54.66806 | 18.17632 | 19783 ft | 325 kts | 126° |
| 2026-04-21 17:10 | 54.65320 | 18.20491 | 19277 ft | 317 kts | 126° |
| 2026-04-21 17:11 | 54.63847 | 18.23323 | 18766 ft | 315 kts | 126° |
| 2026-04-21 17:11 | 54.62381 | 18.26134 | 18202 ft | 313 kts | 126° |
| 2026-04-21 17:11 | 54.60923 | 18.28918 | 17629 ft | 311 kts | 126° |
| 2026-04-21 17:11 | 54.59480 | 18.31669 | 17055 ft | 308 kts | 126° |
| 2026-04-21 17:12 | 54.58046 | 18.34402 | 16500 ft | 305 kts | 126° |
| 2026-04-21 17:12 | 54.56639 | 18.37083 | 15951 ft | 303 kts | 126° |
| 2026-04-21 17:12 | 54.55212 | 18.39799 | 15407 ft | 301 kts | 126° |
| 2026-04-21 17:12 | 54.53827 | 18.42430 | 14881 ft | 298 kts | 126° |
| 2026-04-21 17:13 | 54.52434 | 18.45071 | 14362 ft | 296 kts | 127° |
| 2026-04-21 17:13 | 54.51052 | 18.47686 | 13820 ft | 294 kts | 127° |
| 2026-04-21 17:13 | 54.49675 | 18.50287 | 13250 ft | 292 kts | 127° |
| 2026-04-21 17:13 | 54.48309 | 18.52870 | 12706 ft | 290 kts | 127° |
| 2026-04-21 17:14 | 54.46968 | 18.55405 | 12161 ft | 289 kts | 127° |
| 2026-04-21 17:14 | 54.45624 | 18.57944 | 11616 ft | 282 kts | 127° |
| 2026-04-21 17:14 | 54.44320 | 18.60397 | 11084 ft | 273 kts | 127° |
| 2026-04-21 17:14 | 54.43479 | 18.61977 | 10736 ft | 268 kts | 127° |
| 2026-04-21 17:15 | 54.42382 | 18.64471 | 10215 ft | 254 kts | 113° |
| 2026-04-21 17:15 | 54.41685 | 18.67189 | 9813 ft | 247 kts | 108° |
| 2026-04-21 17:15 | 54.41017 | 18.69917 | 9463 ft | 248 kts | 108° |
| 2026-04-21 17:15 | 54.40340 | 18.72636 | 9115 ft | 247 kts | 108° |
| 2026-04-21 17:16 | 54.39661 | 18.75356 | 8783 ft | 247 kts | 109° |
| 2026-04-21 17:16 | 54.38982 | 18.78063 | 8446 ft | 247 kts | 109° |
| 2026-04-21 17:16 | 54.38304 | 18.80772 | 8104 ft | 247 kts | 109° |
| 2026-04-21 17:16 | 54.37629 | 18.83476 | 7769 ft | 246 kts | 109° |
| 2026-04-21 17:17 | 54.36964 | 18.86147 | 7446 ft | 246 kts | 109° |
| 2026-04-21 17:17 | 54.36291 | 18.88847 | 7117 ft | 246 kts | 109° |
| 2026-04-21 17:17 | 54.35519 | 18.91468 | 6784 ft | 249 kts | 123° |
| 2026-04-21 17:17 | 54.34226 | 18.93468 | 6446 ft | 254 kts | 148° |
| 2026-04-21 17:18 | 54.32536 | 18.94395 | 6107 ft | 258 kts | 174° |
| 2026-04-21 17:18 | 54.30780 | 18.94030 | 5756 ft | 259 kts | 201° |
| 2026-04-21 17:18 | 54.29274 | 18.92412 | 5621 ft | 251 kts | 227° |
| 2026-04-21 17:18 | 54.28316 | 18.89999 | 5503 ft | 249 kts | 252° |
| 2026-04-21 17:19 | 54.27988 | 18.87154 | 5291 ft | 241 kts | 276° |
| 2026-04-21 17:19 | 54.28323 | 18.84412 | 5023 ft | 231 kts | 298° |
| 2026-04-21 17:19 | 54.28955 | 18.81901 | 4711 ft | 228 kts | 298° |
| 2026-04-21 17:19 | 54.29585 | 18.79410 | 4399 ft | 227 kts | 298° |
| 2026-04-21 17:20 | 54.30206 | 18.76939 | 4087 ft | 225 kts | 298° |
| 2026-04-21 17:20 | 54.30821 | 18.74485 | 3770 ft | 223 kts | 298° |
| 2026-04-21 17:20 | 54.31430 | 18.72052 | 3466 ft | 221 kts | 298° |
| 2026-04-21 17:20 | 54.32035 | 18.69634 | 3160 ft | 220 kts | 298° |
| 2026-04-21 17:21 | 54.32635 | 18.67233 | 2881 ft | 216 kts | 298° |
| 2026-04-21 17:21 | 54.33197 | 18.64967 | 2581 ft | 196 kts | 299° |
| 2026-04-21 17:21 | 54.33705 | 18.62920 | 2297 ft | 178 kts | 299° |
| 2026-04-21 17:21 | 54.34169 | 18.61059 | 2061 ft | 163 kts | 300° |
| 2026-04-21 17:22 | 54.34600 | 18.59332 | 1839 ft | 154 kts | 300° |
| 2026-04-21 17:22 | 54.35008 | 18.57697 | 1646 ft | 146 kts | 300° |
| 2026-04-21 17:22 | 54.35399 | 18.56125 | 1446 ft | 138 kts | 299° |
| 2026-04-21 17:22 | 54.35773 | 18.54622 | 1240 ft | 135 kts | 298° |
| 2026-04-21 17:23 | 54.36132 | 18.53178 | 1049 ft | 132 kts | 298° |
| 2026-04-21 17:23 | 54.36494 | 18.51722 | 862 ft | 133 kts | 298° |
| 2026-04-21 17:23 | 54.36848 | 18.50272 | 694 ft | 130 kts | 298° |
| 2026-04-21 17:23 | 54.37198 | 18.48848 | 509 ft | 126 kts | 300° |
| 2026-04-21 17:24 | 54.37508 | 18.47641 | 465 ft | 85 kts | 294° |
| 2026-04-21 17:24 | 54.37658 | 18.47043 | 457 ft | 29 kts | 298° |
| 2026-04-21 17:24 | 54.37724 | 18.46884 | 456 ft | 15 kts | 311° |
| 2026-04-21 17:24 | 54.37787 | 18.46788 | 458 ft | 10 kts | 323° |
| 2026-04-21 17:25 | 54.37847 | 18.46711 | 459 ft | 12 kts | 323° |
| 2026-04-21 17:25 | 54.37914 | 18.46625 | 459 ft | 13 kts | 322° |
| 2026-04-21 17:25 | 54.37968 | 18.46491 | 458 ft | 14 kts | 295° |
| 2026-04-21 17:25 | 54.38008 | 18.46332 | 460 ft | 13 kts | 293° |
| 2026-04-21 17:26 | 54.38046 | 18.46178 | 459 ft | 15 kts | 292° |
| 2026-04-21 17:26 | 54.38112 | 18.46073 | 460 ft | 13 kts | 359° |
| 2026-04-21 17:26 | 54.38176 | 18.46151 | 460 ft | 7 kts | 85° |
| 2026-04-21 17:26 | 54.38164 | 18.46221 | 458 ft | 7 kts | 113° |
| 2026-04-21 17:27 | 54.38141 | 18.46310 | 460 ft | 9 kts | 113° |
| 2026-04-21 17:27 | 54.38115 | 18.46421 | 460 ft | 10 kts | 112° |
| 2026-04-21 17:27 | 54.38089 | 18.46525 | 458 ft | 9 kts | 113° |
| 2026-04-21 17:27 | 54.38071 | 18.46610 | 460 ft | 6 kts | 96° |
| 2026-04-21 17:28 | 54.38084 | 18.46660 | 457 ft | 3 kts | 38° |
| 2026-04-21 17:28 | 54.38097 | 18.46669 | 460 ft | 1 kts | 23° |
| 2026-04-21 17:28 | 54.38106 | 18.46676 | 460 ft | 2 kts | 23° |